Time;durP1;ratioP1;P1;durP2;ratioP2;P2;SDS_P1;SDS_P2;PMS_P1;PMS_P2;Temp;Humidity;BMP_temperature;BMP_pressure;BME280_temperature;BME280_humidity;BME280_pressure;Samples;Min_cycle;Max_cycle;Signal;HPM_P1;HPM_P2
2022/05/25 00:00:19;;;;;;;8.48;5.78;;;;;;;12.54;78.04;98793.40;1760264;81;21032;-82
2022/05/25 00:02:48;;;;;;;10.45;5.45;;;;;;;12.50;79.66;98783.16;1751468;81;20969;-82
2022/05/25 00:05:17;;;;;;;13.25;5.80;;;;;;;12.46;81.03;98782.41;1730193;81;21009;-82
2022/05/25 00:07:44;;;;;;;10.58;5.50;;;;;;;12.44;81.43;98781.63;1758800;81;21013;-82
2022/05/25 00:10:11;;;;;;;10.53;5.30;;;;;;;12.42;81.94;98783.44;1759982;81;21013;-82
2022/05/25 00:12:40;;;;;;;11.08;5.08;;;;;;;12.41;79.12;98790.84;1759080;81;20998;-83
2022/05/25 00:15:10;;;;;;;11.70;4.17;;;;;;;12.41;79.15;98784.33;1757661;81;21241;-83
2022/05/25 00:17:37;;;;;;;8.78;4.30;;;;;;;12.40;79.07;98794.38;1762095;81;21035;-82
2022/05/25 00:20:05;;;;;;;8.28;4.12;;;;;;;12.38;79.17;98793.59;1761429;81;20969;-81
2022/05/25 00:22:51;;;;;;;8.80;3.50;;;;;;;12.38;79.30;98792.28;1760228;81;21047;-81
2022/05/25 00:25:30;;;;;;;6.25;3.70;;;;;;;12.38;79.58;98789.67;1742022;81;21110;-81
2022/05/25 00:27:57;;;;;;;7.80;3.62;;;;;;;12.37;79.75;98789.73;1757859;81;20999;-81
2022/05/25 00:30:25;;;;;;;6.80;3.10;;;;;;;12.30;78.66;98793.87;1746402;81;21058;-81
2022/05/25 00:32:53;;;;;;;8.05;3.30;;;;;;;12.28;79.16;98790.93;1758800;81;21522;-82
2022/05/25 00:35:23;;;;;;;11.68;3.60;;;;;;;12.27;79.10;98799.18;1748350;81;20967;-82
2022/05/25 00:37:50;;;;;;;6.75;3.27;;;;;;;12.26;78.74;98793.59;1718054;83;20963;-81
2022/05/25 00:40:25;;;;;;;7.15;3.70;;;;;;;12.26;78.52;98797.49;1730799;83;21042;-81
2022/05/25 00:42:52;;;;;;;8.25;3.92;;;;;;;12.26;78.52;98796.19;1730973;83;21027;-82
2022/05/25 00:45:19;;;;;;;7.10;3.75;;;;;;;12.26;78.88;98805.31;1729592;83;21063;-81
2022/05/25 00:47:49;;;;;;;8.45;3.90;;;;;;;12.26;79.09;98810.53;1719290;83;21003;-82
2022/05/25 00:50:20;;;;;;;8.50;4.22;;;;;;;12.26;78.51;98805.77;1732848;83;21035;-82
2022/05/25 00:52:48;;;;;;;6.37;3.62;;;;;;;12.24;78.25;98804.98;1733407;83;21099;-82
2022/05/25 00:55:28;;;;;;;7.50;3.52;;;;;;;12.22;78.03;98812.01;1723851;82;21076;-82
2022/05/25 00:58:00;;;;;;;9.13;4.03;;;;;;;12.20;78.33;98812.52;1722830;83;21534;-82
2022/05/25 01:00:30;;;;;;;13.48;4.60;;;;;;;12.19;79.35;98807.73;1723168;83;21020;-81
2022/05/25 01:03:05;;;;;;;9.90;4.10;;;;;;;12.16;78.91;98807.86;1704450;83;21054;-82
2022/05/25 01:05:40;;;;;;;13.48;5.25;;;;;;;12.13;77.71;98804.89;1721725;83;21316;-82
2022/05/25 01:08:17;;;;;;;8.80;4.33;;;;;;;12.10;77.49;98802.41;1707580;83;21002;-82
2022/05/25 01:11:24;;;;;;;8.53;4.33;;;;;;;12.05;78.82;98808.23;1722843;82;21008;-81
2022/05/25 01:14:08;;;;;;;12.10;4.95;;;;;;;12.04;79.20;98814.82;1694287;83;21541;-81
2022/05/25 01:17:14;;;;;;;11.50;5.37;;;;;;;12.02;79.00;98810.96;1706160;83;21543;-82
2022/05/25 01:20:08;;;;;;;11.28;5.12;;;;;;;12.00;78.16;98814.53;1725222;83;21043;-81
2022/05/25 01:23:10;;;;;;;7.95;4.40;;;;;;;11.97;79.33;98818.08;1725548;83;21583;-82
2022/05/25 01:26:00;;;;;;;9.03;3.65;;;;;;;11.97;78.94;98811.56;1712274;83;21110;-81
2022/05/25 01:28:58;;;;;;;6.47;3.65;;;;;;;11.95;77.97;98817.28;1698210;83;21050;-81
2022/05/25 01:31:39;;;;;;;8.10;3.80;;;;;;;11.88;79.40;98798.39;1726645;83;21018;-81
2022/05/25 01:34:20;;;;;;;8.18;3.75;;;;;;;11.88;79.33;98800.16;1728215;83;21721;-81
2022/05/25 01:37:01;;;;;;;7.30;3.55;;;;;;;11.90;79.11;98800.52;1724878;83;21042;-81
2022/05/25 01:39:31;;;;;;;7.70;3.70;;;;;;;11.93;79.15;98808.20;1727996;83;21046;-81
2022/05/25 01:42:09;;;;;;;11.70;4.45;;;;;;;11.96;79.09;98815.52;1726940;83;21066;-81
2022/05/25 01:44:51;;;;;;;8.35;4.20;;;;;;;11.98;78.16;98818.48;1709350;83;21056;-81
2022/05/25 01:47:20;;;;;;;10.95;4.85;;;;;;;11.95;79.48;98810.77;1706558;83;20967;-81
2022/05/25 01:50:07;;;;;;;10.32;4.60;;;;;;;11.93;79.06;98813.88;1717545;83;21059;-80
2022/05/25 01:52:42;;;;;;;7.65;4.53;;;;;;;11.93;79.35;98818.63;1726578;83;21041;-80
2022/05/25 01:55:13;;;;;;;9.90;4.28;;;;;;;11.93;79.48;98816.48;1726207;83;21051;-81
2022/05/25 01:57:44;;;;;;;7.72;4.60;;;;;;;11.95;79.06;98815.98;1708334;83;20996;-81
2022/05/25 02:00:41;;;;;;;6.58;3.85;;;;;;;11.93;79.50;98821.69;1724822;83;21500;-81
2022/05/25 02:06:32;;;;;;;12.98;5.25;;;;;;;11.93;80.02;98832.11;1724552;83;21102;-81
2022/05/25 02:09:27;;;;;;;13.45;5.65;;;;;;;11.90;79.82;98827.03;1728016;83;20980;-81
2022/05/25 02:12:08;;;;;;;11.50;5.83;;;;;;;11.87;80.68;98820.12;1712561;83;21032;-81
2022/05/25 02:14:43;;;;;;;14.20;6.55;;;;;;;11.86;80.39;98830.16;1722920;83;21034;-80
2022/05/25 02:17:40;;;;;;;14.28;6.83;;;;;;;11.86;80.40;98832.76;1726589;83;21040;-80
2022/05/25 02:20:21;;;;;;;16.10;6.40;;;;;;;11.84;81.61;98825.91;1709144;83;21055;-82
2022/05/25 02:22:59;;;;;;;16.42;6.70;;;;;;;11.84;82.75;98831.12;1726317;83;21004;-81
2022/05/25 02:25:43;;;;;;;14.63;7.67;;;;;;;11.83;82.47;98829.40;1709785;82;21041;-81
2022/05/25 02:28:18;;;;;;;17.00;7.45;;;;;;;11.82;82.25;98836.83;1702812;83;21099;-81
2022/05/25 02:30:49;;;;;;;14.70;7.03;;;;;;;11.78;83.24;98836.51;1727954;83;20975;-80
2022/05/25 02:33:25;;;;;;;17.57;7.25;;;;;;;11.74;83.83;98839.23;1724611;83;20964;-80
2022/05/25 02:35:52;;;;;;;11.28;6.40;;;;;;;11.73;82.35;98836.22;1753105;82;21012;-81
2022/05/25 02:38:19;;;;;;;20.17;7.83;;;;;;;11.73;82.21;98834.91;1756649;81;21019;-81
2022/05/25 02:40:46;;;;;;;13.83;6.50;;;;;;;11.73;83.41;98841.42;1753441;81;21030;-81
2022/05/25 02:43:13;;;;;;;16.73;7.97;;;;;;;11.73;82.50;98840.13;1754295;82;21491;-82
2022/05/25 02:45:40;;;;;;;20.77;8.13;;;;;;;11.74;81.72;98843.59;1755861;82;21055;-81
2022/05/25 02:48:07;;;;;;;15.88;7.40;;;;;;;11.72;81.93;98832.38;1728918;81;21551;-81
2022/05/25 02:50:34;;;;;;;15.40;7.78;;;;;;;11.71;82.28;98837.17;1725411;82;21515;-82
2022/05/25 02:53:01;;;;;;;14.50;7.97;;;;;;;11.71;82.54;98845.83;1756851;81;21002;-81
2022/05/25 02:55:30;;;;;;;17.48;7.47;;;;;;;11.70;82.65;98846.75;1732562;81;20986;-81
2022/05/25 02:57:59;;;;;;;48.40;8.48;;;;;;;11.71;83.08;98843.69;1746905;81;20993;-80
2022/05/25 03:00:26;;;;;;;13.85;7.47;;;;;;;11.69;82.05;98846.34;1742002;81;21016;-80
2022/05/25 03:02:53;;;;;;;12.95;7.37;;;;;;;11.66;83.96;98845.16;1761372;81;21119;-81
2022/05/25 03:05:20;;;;;;;15.43;6.97;;;;;;;11.66;83.40;98843.02;1762394;81;21023;-82
2022/05/25 03:07:47;;;;;;;17.35;7.85;;;;;;;11.67;83.95;98850.75;1756073;81;20971;-81
2022/05/25 03:10:13;;;;;;;15.45;8.28;;;;;;;11.69;82.87;98854.15;1729872;81;21082;-81
2022/05/25 03:12:41;;;;;;;14.93;7.42;;;;;;;11.73;82.69;98853.60;1761455;81;21060;-80
2022/05/25 03:15:08;;;;;;;15.32;6.65;;;;;;;11.78;82.48;98848.23;1748740;81;21019;-81
2022/05/25 03:17:34;;;;;;;12.73;5.83;;;;;;;11.81;82.62;98859.86;1756060;81;21022;-80
2022/05/25 03:20:01;;;;;;;12.80;5.05;;;;;;;11.82;82.08;98859.81;1762478;81;20971;-81
2022/05/25 03:22:28;;;;;;;13.72;5.03;;;;;;;11.81;81.50;98857.25;1759299;81;21030;-80
2022/05/25 03:24:55;;;;;;;12.63;4.92;;;;;;;11.80;81.30;98856.84;1754742;80;21062;-81
2022/05/25 03:27:21;;;;;;;10.18;5.42;;;;;;;11.82;81.34;98859.81;1721258;82;20956;-81
2022/05/25 03:29:47;;;;;;;8.65;5.33;;;;;;;11.85;81.39;98858.39;1747120;82;20980;-81
2022/05/25 03:32:14;;;;;;;11.08;4.92;;;;;;;11.87;81.27;98857.88;1738611;82;21030;-82
2022/05/25 03:34:40;;;;;;;14.55;5.87;;;;;;;11.93;81.38;98869.42;1738493;82;21039;-80
2022/05/25 03:37:07;;;;;;;11.28;5.45;;;;;;;11.99;80.93;98867.53;1737174;82;21027;-82
2022/05/25 03:39:34;;;;;;;11.88;6.05;;;;;;;12.05;81.46;98873.83;1718426;82;21040;-80
2022/05/25 03:42:06;;;;;;;12.18;5.70;;;;;;;12.09;81.26;98878.87;1736076;82;21507;-80
2022/05/25 03:44:36;;;;;;;13.10;6.67;;;;;;;12.16;81.72;98887.34;1732642;82;21039;-80
2022/05/25 03:47:03;;;;;;;11.75;5.60;;;;;;;12.21;80.88;98884.56;1737790;82;20999;-80
2022/05/25 03:49:30;;;;;;;10.98;6.00;;;;;;;12.27;81.45;98885.19;1736083;82;21074;-81
2022/05/25 03:51:57;;;;;;;11.55;5.97;;;;;;;12.35;81.24;98878.41;1731068;82;21012;-82
2022/05/25 03:54:24;;;;;;;13.18;6.65;;;;;;;12.38;79.94;98872.25;1730284;82;21510;-81
2022/05/25 03:56:51;;;;;;;15.43;6.45;;;;;;;12.42;80.76;98875.15;1695976;82;21030;-81
2022/05/25 03:59:17;;;;;;;11.30;5.30;;;;;;;12.50;80.33;98873.95;1705072;83;21159;-82
2022/05/25 04:01:44;;;;;;;14.75;6.50;;;;;;;12.56;80.58;98874.65;1711436;84;21394;-81
2022/05/25 04:04:11;;;;;;;15.43;6.47;;;;;;;12.64;80.69;98871.30;1706052;84;20996;-82
2022/05/25 04:06:37;;;;;;;10.32;6.20;;;;;;;12.73;80.58;98877.45;1714836;83;21146;-81
2022/05/25 04:09:05;;;;;;;16.07;6.47;;;;;;;12.80;80.29;98868.51;1711595;82;20996;-82
2022/05/25 04:11:33;;;;;;;14.03;6.72;;;;;;;12.88;80.51;98857.33;1705475;84;21063;-81
2022/05/25 04:13:59;;;;;;;13.35;6.33;;;;;;;12.99;80.48;98862.58;1708151;84;21035;-81
2022/05/25 04:16:27;;;;;;;12.98;5.67;;;;;;;13.09;80.52;98865.22;1702184;84;21000;-82
2022/05/25 04:18:53;;;;;;;13.00;5.97;;;;;;;13.18;80.39;98863.56;1714412;84;20984;-81
2022/05/25 04:21:20;;;;;;;12.18;5.85;;;;;;;13.26;80.21;98862.80;1713843;84;22684;-81
2022/05/25 04:23:46;;;;;;;11.63;6.15;;;;;;;13.35;80.04;98865.55;1716652;84;21067;-82
2022/05/25 04:26:13;;;;;;;14.83;5.72;;;;;;;13.46;80.00;98867.26;1713366;83;21559;-81
2022/05/25 04:28:40;;;;;;;15.32;6.60;;;;;;;13.54;79.63;98870.87;1686414;84;21011;-81
2022/05/25 04:31:07;;;;;;;18.02;6.42;;;;;;;13.55;79.37;98864.75;1715469;83;21036;-80
2022/05/25 04:33:36;;;;;;;12.37;6.58;;;;;;;13.54;79.26;98870.87;1694464;83;21023;-81
2022/05/25 04:36:04;;;;;;;13.88;5.80;;;;;;;13.61;79.36;98873.63;1710538;84;21476;-81
2022/05/25 04:38:30;;;;;;;12.82;6.20;;;;;;;13.65;78.80;98873.06;1705158;83;21554;-81
2022/05/25 04:40:57;;;;;;;11.08;5.78;;;;;;;13.69;79.08;98868.94;1711280;83;21008;-82
2022/05/25 04:43:25;;;;;;;15.03;8.08;;;;;;;13.77;78.48;98877.77;1702667;84;21551;-81
2022/05/25 04:45:54;;;;;;;10.60;6.08;;;;;;;13.81;77.70;98879.81;1710891;83;21023;-83
2022/05/25 04:48:25;;;;;;;16.55;5.60;;;;;;;13.80;77.36;98884.16;1689545;84;21002;-81
2022/05/25 04:50:54;;;;;;;17.87;6.12;;;;;;;13.80;77.16;98887.23;1712220;83;22178;-82
2022/05/25 04:53:22;;;;;;;23.30;5.35;;;;;;;13.81;77.06;98887.64;1701903;84;21563;-81
2022/05/25 04:58:46;;;;;;;14.23;5.65;;;;;;;13.91;76.82;98887.65;1720884;83;21050;-80
2022/05/25 05:01:19;;;;;;;12.68;5.47;;;;;;;13.97;76.94;98895.69;1727089;83;21564;-81
2022/05/25 05:03:44;;;;;;;14.33;5.37;;;;;;;14.07;76.65;98896.53;1726850;83;21063;-82
2022/05/25 05:06:11;;;;;;;14.07;5.60;;;;;;;14.17;76.64;98904.00;1727874;83;21120;-80
2022/05/25 05:08:39;;;;;;;10.13;5.60;;;;;;;14.33;76.71;98915.48;1711302;83;21004;-82
2022/05/25 05:11:13;;;;;;;18.50;6.20;;;;;;;14.49;76.29;98907.35;1727674;83;20991;-81
2022/05/25 05:13:41;;;;;;;12.23;5.60;;;;;;;14.67;76.13;98900.95;1718625;83;21670;-82
2022/05/25 05:16:13;;;;;;;16.02;5.55;;;;;;;14.88;75.52;98914.81;1704672;83;21019;-81
2022/05/25 05:18:44;;;;;;;16.93;5.20;;;;;;;15.06;75.16;98923.59;1716964;83;20980;-81
2022/05/25 05:21:13;;;;;;;14.18;5.78;;;;;;;15.26;74.78;98917.42;1724712;83;21068;-80
2022/05/25 05:23:41;;;;;;;14.85;5.45;;;;;;;15.43;74.72;98925.81;1726315;82;21460;-81
2022/05/25 05:26:10;;;;;;;9.00;5.08;;;;;;;15.63;74.18;98928.78;1727419;83;21056;-81
2022/05/25 05:28:40;;;;;;;11.15;5.05;;;;;;;15.82;74.26;98913.89;1724710;83;20987;-82
2022/05/25 05:31:09;;;;;;;12.85;5.85;;;;;;;15.98;73.80;98917.91;1724724;83;21071;-82
2022/05/25 05:33:36;;;;;;;10.60;5.62;;;;;;;16.09;72.49;98931.78;1727069;83;21156;-81
2022/05/25 05:36:20;;;;;;;12.82;6.53;;;;;;;16.10;72.53;98929.09;1728092;83;21039;-82
2022/05/25 05:39:06;;;;;;;12.43;6.55;;;;;;;16.12;71.77;98922.46;1726096;83;21829;-81
2022/05/25 05:41:49;;;;;;;14.07;5.87;;;;;;;16.14;71.12;98922.39;1724066;83;21062;-81
2022/05/25 05:44:21;;;;;;;14.23;7.10;;;;;;;16.26;70.93;98932.25;1725838;83;21491;-82
2022/05/25 05:46:50;;;;;;;11.22;6.05;;;;;;;16.24;70.58;98940.67;1722310;83;21008;-83
2022/05/25 05:49:17;;;;;;;13.38;6.00;;;;;;;16.30;69.94;98947.75;1727278;83;21055;-82
2022/05/25 05:51:44;;;;;;;11.12;5.70;;;;;;;16.40;70.30;98946.82;1727627;83;21051;-82
2022/05/25 05:54:12;;;;;;;10.82;6.40;;;;;;;16.43;70.23;98957.61;1725997;83;21079;-81
2022/05/25 05:56:38;;;;;;;14.63;5.70;;;;;;;16.50;69.91;98960.31;1711931;83;21107;-81
2022/05/25 05:59:05;;;;;;;13.48;6.47;;;;;;;16.60;69.56;98974.66;1716781;83;21051;-82
2022/05/25 06:01:32;;;;;;;10.48;5.80;;;;;;;16.55;68.98;98979.28;1696756;83;22129;-81
2022/05/25 06:03:58;;;;;;;11.05;5.75;;;;;;;16.44;68.92;98982.94;1711992;83;21047;-81
2022/05/25 06:06:25;;;;;;;10.72;5.53;;;;;;;16.48;68.77;98980.07;1707132;83;21542;-82
2022/05/25 06:08:53;;;;;;;8.93;5.72;;;;;;;16.58;68.79;98986.17;1705782;84;21295;-82
2022/05/25 06:11:21;;;;;;;11.20;5.90;;;;;;;16.66;68.75;98990.08;1700278;83;21505;-81
2022/05/25 06:13:48;;;;;;;13.62;5.58;;;;;;;16.70;66.91;98997.34;1699810;83;20987;-82
2022/05/25 06:21:45;;;;;;;14.20;5.05;;;;;;;16.71;67.41;99025.27;1700890;83;21506;-81
2022/05/25 06:24:12;;;;;;;13.28;5.08;;;;;;;16.61;67.50;99009.62;1714274;82;21606;-81
2022/05/25 06:26:38;;;;;;;10.32;5.97;;;;;;;16.47;67.81;99010.31;1713007;83;21004;-83
2022/05/25 06:29:05;;;;;;;14.43;5.58;;;;;;;16.48;67.83;99013.34;1705544;83;21000;-85
2022/05/25 06:31:33;;;;;;;10.00;5.33;;;;;;;16.46;67.65;99025.69;1709600;83;21065;-81
2022/05/25 06:33:59;;;;;;;12.45;5.67;;;;;;;16.29;68.73;99040.51;1709437;83;20998;-83
2022/05/25 06:36:29;;;;;;;11.95;5.87;;;;;;;16.29;69.53;99058.88;1713148;83;21080;-82
2022/05/25 06:38:57;;;;;;;14.60;5.62;;;;;;;16.22;69.90;99059.24;1710044;83;21382;-82
2022/05/25 06:41:25;;;;;;;8.50;4.87;;;;;;;16.21;70.07;99073.27;1711509;83;21498;-81
2022/05/25 06:43:53;;;;;;;8.40;4.62;;;;;;;16.14;69.79;99060.08;1712421;83;21805;-81
2022/05/25 06:46:21;;;;;;;10.98;4.45;;;;;;;16.08;69.93;99064.69;1706228;83;21638;-80
2022/05/25 06:48:52;;;;;;;11.00;5.12;;;;;;;16.07;69.53;99062.97;1707305;83;20964;-80
2022/05/25 06:51:26;;;;;;;9.23;5.33;;;;;;;16.01;69.55;99048.00;1698479;83;21034;-80
2022/05/25 06:53:53;;;;;;;13.88;6.40;;;;;;;16.02;70.03;99032.20;1703505;83;21554;-80
2022/05/25 06:56:23;;;;;;;13.20;6.53;;;;;;;16.09;70.00;99035.37;1697525;83;21060;-81
2022/05/25 06:58:53;;;;;;;13.25;7.28;;;;;;;16.15;69.65;99036.38;1708847;83;21571;-80
2022/05/25 07:01:22;;;;;;;15.72;7.75;;;;;;;16.17;69.91;99046.33;1712843;83;21047;-79
2022/05/25 07:03:49;;;;;;;11.25;7.08;;;;;;;16.27;69.62;99063.34;1708522;83;21054;-79
2022/05/25 07:06:18;;;;;;;14.93;6.87;;;;;;;16.24;70.16;99048.21;1717829;83;21588;-79
2022/05/25 07:08:45;;;;;;;11.35;7.10;;;;;;;16.31;70.38;99028.60;1714818;83;21055;-80
2022/05/25 07:11:12;;;;;;;14.43;7.17;;;;;;;16.40;70.43;99001.91;1703813;83;21075;-79
2022/05/25 07:13:41;;;;;;;11.48;7.12;;;;;;;16.47;70.91;98993.27;1707425;83;20964;-80
2022/05/25 07:16:13;;;;;;;11.70;7.25;;;;;;;16.57;70.70;99004.98;1703991;83;21123;-81
2022/05/25 07:18:40;;;;;;;14.13;6.80;;;;;;;16.63;70.89;99013.88;1715994;83;21000;-79
2022/05/25 07:21:15;;;;;;;12.60;6.87;;;;;;;16.74;70.81;99018.56;1715074;83;21035;-79
2022/05/25 07:23:44;;;;;;;13.22;6.92;;;;;;;16.76;71.15;99023.75;1716599;83;21039;-81
2022/05/25 07:26:12;;;;;;;17.55;7.80;;;;;;;16.80;71.41;99027.44;1712862;83;20995;-78
2022/05/25 07:28:40;;;;;;;13.05;6.42;;;;;;;16.87;71.48;99023.61;1718513;83;21036;-80
2022/05/25 07:31:32;;;;;;;13.88;6.70;;;;;;;16.92;71.28;99020.73;1711565;83;21126;-79
2022/05/25 07:34:04;;;;;;;13.75;6.70;;;;;;;16.93;70.77;99020.26;1714099;83;21007;-79
2022/05/25 07:36:32;;;;;;;9.68;5.42;;;;;;;16.95;70.17;99032.41;1708777;83;21058;-80
2022/05/25 07:39:03;;;;;;;9.43;5.28;;;;;;;16.88;69.18;99046.30;1718842;83;21023;-79
2022/05/25 07:41:34;;;;;;;9.98;4.87;;;;;;;16.84;69.00;99044.76;1710194;83;21442;-78
2022/05/25 07:44:01;;;;;;;9.28;5.80;;;;;;;16.84;68.67;99039.98;1718668;82;21119;-79
2022/05/25 07:46:29;;;;;;;9.30;5.78;;;;;;;16.69;69.03;99042.88;1716724;83;21011;-80
2022/05/25 07:48:57;;;;;;;9.78;5.95;;;;;;;16.67;69.14;99052.61;1706823;83;21023;-79
2022/05/25 07:51:25;;;;;;;9.60;6.12;;;;;;;16.59;69.51;99037.28;1706026;83;20988;-78
2022/05/25 07:53:56;;;;;;;10.08;5.87;;;;;;;16.60;69.98;99023.69;1717327;83;22079;-79
2022/05/25 07:56:29;;;;;;;9.73;5.92;;;;;;;16.61;70.07;99025.36;1710335;83;21081;-79
2022/05/25 07:58:58;;;;;;;14.10;6.30;;;;;;;16.60;70.80;99021.89;1700207;84;21060;-79
2022/05/25 08:07:02;;;;;;;11.70;6.17;;;;;;;16.88;74.77;99005.59;1693560;84;21500;-81
2022/05/25 08:09:30;;;;;;;15.10;5.80;;;;;;;17.01;73.25;99019.39;1706043;84;21076;-78
2022/05/25 08:11:59;;;;;;;12.50;6.60;;;;;;;17.10;73.57;99003.16;1709888;83;21210;-80
2022/05/25 08:14:27;;;;;;;12.50;6.97;;;;;;;17.24;74.03;98991.91;1705330;84;20977;-78
2022/05/25 08:16:54;;;;;;;11.90;6.33;;;;;;;17.46;73.99;98984.53;1686127;84;20996;-78
2022/05/25 08:19:21;;;;;;;12.60;6.62;;;;;;;17.58;74.12;98969.03;1706975;84;21493;-78
2022/05/25 08:21:48;;;;;;;13.50;6.72;;;;;;;17.70;73.97;98978.38;1708267;83;21031;-79
2022/05/25 08:24:15;;;;;;;16.52;7.28;;;;;;;17.81;74.32;98969.06;1705155;84;21034;-78
2022/05/25 08:26:42;;;;;;;12.95;6.10;;;;;;;17.91;73.26;98970.26;1711533;84;21107;-79
2022/05/25 08:29:10;;;;;;;10.48;5.37;;;;;;;17.91;72.88;98971.58;1707555;84;21504;-79
2022/05/25 08:31:38;;;;;;;11.75;6.28;;;;;;;17.93;71.69;98979.39;1702241;84;20996;-78
2022/05/25 08:34:06;;;;;;;9.65;5.05;;;;;;;17.92;71.52;98991.66;1708257;83;21019;-78
2022/05/25 08:36:34;;;;;;;12.03;5.20;;;;;;;17.84;71.09;98975.00;1712543;84;21024;-78
2022/05/25 08:39:00;;;;;;;10.72;5.47;;;;;;;17.85;71.29;98994.28;1707647;84;20980;-78
2022/05/25 08:41:35;;;;;;;8.15;5.50;;;;;;;17.91;71.17;98970.73;1699498;84;20954;-78
2022/05/25 08:44:03;;;;;;;12.07;5.40;;;;;;;17.98;71.57;98986.05;1708849;84;21027;-80
2022/05/25 08:46:32;;;;;;;11.08;6.22;;;;;;;18.07;71.25;98980.27;1710623;84;21004;-79
2022/05/25 08:49:11;;;;;;;10.82;6.28;;;;;;;18.15;71.65;98963.20;1702744;84;22180;-79
2022/05/25 08:51:54;;;;;;;10.30;5.62;;;;;;;18.27;71.27;98957.22;1712471;84;21087;-80
2022/05/25 08:54:25;;;;;;;13.53;7.10;;;;;;;18.31;70.88;98989.00;1700564;82;21082;-78
2022/05/25 08:57:15;;;;;;;12.10;6.95;;;;;;;18.34;70.45;98951.95;1700530;83;22165;-78
2022/05/25 09:00:02;;;;;;;13.95;5.40;;;;;;;18.39;70.51;98947.28;1711604;84;21335;-78
2022/05/25 09:02:56;;;;;;;12.50;5.72;;;;;;;18.41;70.07;98962.51;1710079;84;21079;-79
2022/05/25 09:05:52;;;;;;;10.43;5.62;;;;;;;18.42;70.05;98977.83;1698238;84;21063;-78
2022/05/25 09:08:43;;;;;;;15.13;5.65;;;;;;;18.47;70.21;98987.15;1695223;84;21012;-79
2022/05/25 09:11:17;;;;;;;10.32;6.03;;;;;;;18.61;70.48;98965.74;1705948;83;21048;-78
2022/05/25 09:14:05;;;;;;;12.47;5.83;;;;;;;18.81;69.60;98958.81;1712068;84;21004;-78
2022/05/25 09:16:36;;;;;;;9.05;5.85;;;;;;;18.90;69.42;98983.77;1707024;83;21627;-80
2022/05/25 09:19:29;;;;;;;17.65;7.65;;;;;;;18.99;69.33;98989.77;1708025;84;21004;-80
2022/05/25 09:22:09;;;;;;;17.57;6.15;;;;;;;18.97;69.07;98996.08;1696757;84;21034;-82
2022/05/25 09:24:38;;;;;;;15.58;6.25;;;;;;;19.02;68.18;98991.36;1705319;84;21018;-82
2022/05/25 09:27:08;;;;;;;11.68;6.42;;;;;;;19.02;68.49;98978.19;1705370;84;21070;-79
2022/05/25 09:29:35;;;;;;;14.10;6.08;;;;;;;19.16;68.18;98968.98;1706317;83;20996;-79
2022/05/25 09:32:36;;;;;;;8.88;6.12;;;;;;;19.17;67.12;98973.30;1703551;82;21111;-79
2022/05/25 09:35:17;;;;;;;11.95;6.80;;;;;;;19.23;67.01;98974.70;1705818;82;21083;-79
2022/05/25 09:38:04;;;;;;;12.35;6.33;;;;;;;19.33;66.80;98972.34;1707274;82;21067;-80
2022/05/25 09:40:39;;;;;;;13.90;6.30;;;;;;;19.41;66.75;98976.17;1700735;82;21099;-80
2022/05/25 09:43:10;;;;;;;12.25;6.08;;;;;;;19.42;65.75;98965.18;1701841;82;21127;-79
2022/05/25 09:45:44;;;;;;;10.63;5.20;;;;;;;19.53;66.22;98957.89;1681298;84;21037;-81
2022/05/25 09:48:29;;;;;;;9.43;5.22;;;;;;;19.65;65.79;98959.25;1711016;84;21013;-80
2022/05/25 09:51:06;;;;;;;13.22;5.70;;;;;;;19.78;64.23;98957.19;1679348;84;21044;-79
2022/05/25 09:53:38;;;;;;;10.80;5.53;;;;;;;20.00;64.91;98956.63;1704567;84;21548;-80
2022/05/25 09:56:21;;;;;;;9.38;5.33;;;;;;;20.13;64.61;98948.24;1699394;84;21045;-79
2022/05/25 09:58:53;;;;;;;;;;;;;;;20.27;64.49;98946.00;1728772;82;21023;-80
2022/05/25 10:01:29;;;;;;;12.60;6.17;;;;;;;20.49;64.78;98939.27;1709466;83;20411;-79
2022/05/25 10:03:55;;;;;;;11.93;6.05;;;;;;;20.62;64.16;98941.00;1721555;83;21047;-80
2022/05/25 10:06:28;;;;;;;13.70;5.65;;;;;;;20.74;64.27;98930.05;1725469;83;21567;-79
2022/05/25 10:09:25;;;;;;;13.08;6.03;;;;;;;20.97;63.78;98928.45;1724844;83;21023;-80
2022/05/25 10:12:01;;;;;;;17.12;7.05;;;;;;;21.05;63.40;98927.91;1722946;83;21000;-79
2022/05/25 10:14:35;;;;;;;12.88;6.47;;;;;;;21.12;63.06;98918.58;1710885;83;21080;-81
2022/05/25 10:17:09;;;;;;;14.65;6.08;;;;;;;21.28;63.29;98913.52;1726221;83;21090;-80
2022/05/25 10:19:49;;;;;;;13.15;6.00;;;;;;;21.45;63.05;98912.69;1722346;83;21008;-79
2022/05/25 10:22:41;;;;;;;14.53;5.70;;;;;;;21.70;62.67;98916.66;1717379;83;21039;-80
2022/05/25 10:25:31;;;;;;;11.30;5.35;;;;;;;21.73;61.85;98911.16;1720037;83;21011;-80
2022/05/25 10:27:59;;;;;;;7.72;4.65;;;;;;;21.96;60.62;98907.61;1723950;83;21312;-80
2022/05/25 10:36:47;;;;;;;9.25;5.10;;;;;;;22.49;59.94;98895.74;1715352;83;21483;-79
2022/05/25 10:39:19;;;;;;;12.45;5.30;;;;;;;22.70;60.36;98884.80;1672050;83;21063;-82
2022/05/25 10:42:17;;;;;;;8.88;4.67;;;;;;;22.93;58.27;98883.45;1726160;83;21035;-81
2022/05/25 10:45:03;;;;;;;9.15;4.60;;;;;;;23.01;58.97;98877.05;1718816;82;21059;-81
2022/05/25 10:48:00;;;;;;;17.12;9.78;;;;;;;23.19;59.12;98876.92;1702290;83;20984;-80
2022/05/25 10:50:42;;;;;;;16.40;10.35;;;;;;;23.40;58.97;98874.34;1685894;83;21025;-80
2022/05/25 10:56:43;;;;;;;9.05;4.60;;;;;;;23.86;57.11;98861.77;1720408;83;21313;-80
2022/05/25 10:59:27;;;;;;;6.85;4.05;;;;;;;23.96;53.83;98874.63;1698168;83;20985;-80
2022/05/25 11:02:08;;;;;;;8.23;4.40;;;;;;;23.99;55.71;98863.76;1721577;82;21082;-81
2022/05/25 11:05:01;;;;;;;10.58;4.85;;;;;;;24.10;55.34;98858.86;1724213;83;21075;-79
2022/05/25 11:07:42;;;;;;;9.48;3.50;;;;;;;24.22;53.74;98858.30;1714989;83;21035;-80
2022/05/25 11:10:29;;;;;;;12.23;4.47;;;;;;;24.36;54.25;98856.63;1725785;83;21023;-80
2022/05/25 11:13:22;;;;;;;10.45;4.03;;;;;;;24.44;52.76;98841.35;1720573;83;21142;-79
2022/05/25 11:16:08;;;;;;;;;;;;;;;24.53;50.22;98855.67;1718454;82;21083;-79
2022/05/25 11:19:04;;;;;;;6.92;3.58;;;;;;;24.55;50.77;98847.08;1719950;83;20113;-79
2022/05/25 11:22:10;;;;;;;9.80;3.75;;;;;;;24.61;52.56;98839.90;1724257;83;21679;-80
2022/05/25 11:25:24;;;;;;;8.63;3.62;;;;;;;24.80;51.94;98839.97;1724807;82;21039;-78
2022/05/25 11:28:23;;;;;;;8.23;3.47;;;;;;;24.91;51.56;98835.05;1717966;83;21207;-80
2022/05/25 11:30:58;;;;;;;11.45;3.77;;;;;;;25.17;50.63;98835.87;1709162;83;21571;-79
2022/05/25 11:33:30;;;;;;;10.40;3.67;;;;;;;25.44;48.56;98830.39;1719190;83;21558;-79
2022/05/25 11:36:17;;;;;;;10.10;3.87;;;;;;;25.50;49.17;98831.99;1712076;83;21031;-79
2022/05/25 11:38:58;;;;;;;7.87;4.17;;;;;;;25.61;49.02;98828.37;1720733;83;21281;-79
2022/05/25 11:41:42;;;;;;;9.78;4.00;;;;;;;25.71;48.62;98827.86;1722661;83;21082;-80
2022/05/25 11:44:29;;;;;;;7.40;3.77;;;;;;;25.83;49.02;98821.90;1722372;83;21042;-80
2022/05/25 11:47:07;;;;;;;7.53;3.27;;;;;;;25.95;47.77;98816.78;1721937;83;21566;-79
2022/05/25 11:50:13;;;;;;;6.87;3.55;;;;;;;26.13;45.79;98820.05;1651242;83;21559;-79
2022/05/25 11:53:00;;;;;;;6.00;3.60;;;;;;;26.37;46.63;98808.89;1708319;83;21585;-80
2022/05/25 11:55:40;;;;;;;6.50;4.08;;;;;;;26.63;46.64;98810.41;1657764;83;21054;-80
2022/05/25 11:58:28;;;;;;;9.00;3.40;;;;;;;27.02;46.65;98810.67;1689432;83;21016;-80
2022/05/25 12:01:03;;;;;;;11.75;3.83;;;;;;;27.37;45.73;98806.72;1702007;83;21037;-80
2022/05/25 12:04:04;;;;;;;9.80;3.15;;;;;;;27.57;43.89;98799.42;1715720;83;21101;-80
2022/05/25 12:06:54;;;;;;;9.05;4.15;;;;;;;27.87;44.76;98797.78;1718392;83;21536;-81
2022/05/25 12:09:44;;;;;;;10.28;3.35;;;;;;;28.36;43.47;98800.28;1726166;83;21142;-82
2022/05/25 12:12:31;;;;;;;6.40;3.20;;;;;;;28.64;42.77;98795.27;1720294;83;21007;-80
2022/05/25 12:15:13;;;;;;;5.30;3.37;;;;;;;29.05;39.70;98786.86;1717618;83;21537;-80
2022/05/25 12:18:12;;;;;;;9.43;2.80;;;;;;;29.46;39.71;98793.61;1722827;83;21550;-80
2022/05/25 12:20:55;;;;;;;6.25;3.10;;;;;;;30.04;39.59;98786.89;1700682;83;21093;-81
2022/05/25 12:23:34;;;;;;;6.03;2.95;;;;;;;30.80;39.36;98773.89;1700724;83;21610;-81
2022/05/25 12:26:18;;;;;;;6.12;3.20;;;;;;;31.69;36.81;98766.25;1706922;83;21032;-80
2022/05/25 12:28:47;;;;;;;8.70;3.33;;;;;;;32.57;37.76;98775.94;1727379;83;20988;-80